Tuesday, January 16, 2018, 12:23 PM EST
Back to Local

KRMN, Stafford, Stafford Regional Airport

Location: Fredericksburg, VA, United States Lat: 38.398
Local Time: 12:23 PM EST (17:23 GMT) Lon: -77.455
Time Zone: US/Eastern Elev: 213 ft

Show me the last for .
Show Decoded

2018-01-16 11:35 METAR KRMN 161635Z AUTO 00000KT 7SM CLR 02/M02 A3050 RMK AO2 T00151024 =
2018-01-16 11:15 METAR KRMN 161615Z AUTO 12003KT 5SM HZ CLR 01/M02 A3051 RMK AO2 T00071023 =
2018-01-16 10:55 METAR KRMN 161555Z AUTO 00000KT 5SM BR SCT007 00/M02 A3052 RMK AO2 T00021020 =
2018-01-16 10:35 METAR KRMN 161535Z AUTO 00000KT 4SM BR SCT007 00/M01 A3052 RMK AO2 T10011011 =
2018-01-16 10:15 METAR KRMN 161515Z AUTO 00000KT 4SM BR SCT005 M01/M01 A3053 RMK AO2 T10101012 =
2018-01-16 09:55 METAR KRMN 161455Z AUTO 00000KT 3SM BR BKN005 M02/M02 A3053 RMK AO2 T10171017 =
2018-01-16 09:35 METAR KRMN 161435Z AUTO 00000KT 3SM BR OVC005 M02/M02 A3053 RMK AO2 T10191019 =
2018-01-16 09:15 METAR KRMN 161415Z AUTO 11004KT 3SM BR OVC003 M02/M02 A3052 RMK AO2 T10191019 =
2018-01-16 08:55 METAR KRMN 161355Z AUTO 00000KT 2SM BR OVC003 M02/M02 A3053 RMK AO2 T10211021 =
2018-01-16 08:35 METAR KRMN 161335Z AUTO 15004KT 2SM BR OVC003 M03/M03 A3053 RMK AO2 T10261026 =
2018-01-16 08:15 METAR KRMN 161315Z AUTO 15003KT 2 1/2SM BR OVC003 M03/M03 A3052 RMK AO2
                 T10271027 =
2018-01-16 07:55 METAR KRMN 161255Z AUTO 15004KT 1 3/4SM BR OVC003 M03/M03 A3051 RMK AO2
                 T10301030 =
2018-01-16 07:35 METAR KRMN 161235Z AUTO 13004KT 2SM BR OVC003 M03/M03 A3051 RMK AO2 T10301030 =
2018-01-16 07:15 METAR KRMN 161215Z AUTO 00000KT 4SM BR OVC003 M03/M03 A3051 RMK AO2 T10301030 =
2018-01-16 06:55 METAR KRMN 161155Z AUTO 00000KT 5SM BR OVC003 M03/M03 A3051 RMK AO2 T10311031
                 11028 21042 =
2018-01-16 06:35 METAR KRMN 161135Z AUTO 00000KT 5SM BR OVC003 M03/M03 A3051 RMK AO2 T10321032 =
2018-01-16 06:15 METAR KRMN 161115Z AUTO 00000KT 5SM BR OVC003 M03/M03 A3051 RMK AO2 T10321032 =
2018-01-16 05:55 METAR KRMN 161055Z AUTO 00000KT 5SM BR OVC003 M03/M03 A3051 RMK AO2 T10321032 =
2018-01-16 05:35 METAR KRMN 161035Z AUTO 00000KT 5SM BR OVC003 M03/M03 A3051 RMK AO2 T10321032 =
2018-01-16 05:15 METAR KRMN 161015Z AUTO 16003KT 7SM OVC003 M03/M03 A3049 RMK AO2 T10331033 =
2018-01-16 04:55 METAR KRMN 160955Z AUTO 00000KT 7SM OVC005 M03/M03 A3050 RMK AO2 T10291029 =
2018-01-16 04:35 METAR KRMN 160935Z AUTO 00000KT 10SM OVC005 M03/M03 A3050 RMK AO2 T10321032 =
2018-01-16 04:15 METAR KRMN 160915Z AUTO 00000KT 10SM OVC005 M03/M03 A3050 RMK AO2 T10331033 =
2018-01-16 03:55 METAR KRMN 160855Z AUTO 00000KT 10SM OVC005 M03/M03 A3049 RMK AO2 T10351035 =
2018-01-16 03:35 METAR KRMN 160835Z AUTO 00000KT 10SM OVC005 M03/M03 A3049 RMK AO2 T10301030 =
2018-01-16 03:15 METAR KRMN 160815Z AUTO 00000KT 10SM BKN005 M03/M03 A3049 RMK AO2 T10311031 =
2018-01-16 02:55 METAR KRMN 160755Z AUTO 00000KT 10SM BKN007 M03/M03 A3049 RMK AO2 T10331033 =
2018-01-16 02:35 METAR KRMN 160735Z AUTO 00000KT 10SM OVC007 M04/M04 A3050 RMK AO2 T10391039 =
2018-01-16 02:15 METAR KRMN 160715Z AUTO 00000KT 10SM OVC007 M04/M04 A3049 RMK AO2 T10361036 =
2018-01-16 01:55 METAR KRMN 160655Z AUTO 00000KT 10SM OVC007 M04/M04 A3050 RMK AO2 T10411041 =
2018-01-16 01:35 METAR KRMN 160635Z AUTO 00000KT 10SM OVC009 M04/M04 A3049 RMK AO2 T10381038 =
2018-01-16 01:15 METAR KRMN 160615Z AUTO 00000KT 10SM OVC009 M04/M04 A3051 RMK AO2 T10371037 =
2018-01-16 00:55 METAR KRMN 160555Z AUTO 00000KT 10SM OVC011 M03/M03 A3051 RMK AO2 T10351035
                 11031 21059 400161117 =
2018-01-16 00:35 METAR KRMN 160535Z AUTO 00000KT 10SM OVC011 M04/M04 A3051 RMK AO2 T10371037 =
2018-01-16 00:15 METAR KRMN 160515Z AUTO 00000KT 10SM OVC013 M04/M04 A3051 RMK AO2 T10371039 =
2018-01-15 23:55 METAR KRMN 160455Z AUTO 00000KT 10SM OVC013 M04/M04 A3052 RMK AO2 T10361036 =
2018-01-15 23:35 METAR KRMN 160435Z AUTO 00000KT 10SM OVC013 M04/M04 A3052 RMK AO2 T10401040 =
2018-01-15 23:15 METAR KRMN 160415Z AUTO 00000KT 10SM OVC013 M04/M04 A3052 RMK AO2 T10401041 =
2018-01-15 22:55 METAR KRMN 160355Z AUTO 00000KT 10SM OVC011 M04/M04 A3053 RMK AO2 T10401043 =
2018-01-15 22:35 METAR KRMN 160335Z AUTO 00000KT 10SM OVC011 M04/M05 A3053 RMK AO2 T10451048 =
2018-01-15 22:15 METAR KRMN 160315Z AUTO 00000KT 10SM OVC013 M04/M05 A3053 RMK AO2 T10451051 =
2018-01-15 21:55 METAR KRMN 160255Z AUTO 00000KT 10SM OVC014 M04/M04 A3052 RMK AO2 T10401044 =
2018-01-15 21:35 METAR KRMN 160235Z AUTO 00000KT 10SM OVC012 M04/M04 A3053 RMK AO2 T10441045 =
2018-01-15 21:15 METAR KRMN 160215Z AUTO 00000KT 10SM OVC012 M05/M05 A3053 RMK AO2 T10471047 =
2018-01-15 20:55 METAR KRMN 160155Z AUTO 00000KT 10SM BKN010 M06/M06 A3053 RMK AO2 T10571058 =
2018-01-15 20:35 METAR KRMN 160135Z AUTO 00000KT 10SM SCT010 M06/M06 A3052 RMK AO2 T10561059 =
2018-01-15 20:15 METAR KRMN 160115Z AUTO 00000KT 10SM CLR M05/M05 A3052 RMK AO2 T10461055 =
2018-01-15 19:55 METAR KRMN 160055Z AUTO 00000KT 10SM CLR M04/M06 A3053 RMK AO2 T10441059 =
2018-01-15 19:35 METAR KRMN 160035Z AUTO 00000KT 10SM CLR M04/M06 A3054 RMK AO2 T10421060 =
2018-01-15 19:15 METAR KRMN 160015Z AUTO 00000KT 10SM CLR M03/M06 A3054 RMK AO2 T10331058 =
2018-01-15 18:55 METAR KRMN 152355Z AUTO 00000KT 10SM CLR M03/M06 A3053 RMK AO2 T10341059 10016
                 21034 =
2018-01-15 18:35 METAR KRMN 152335Z AUTO 00000KT 10SM CLR M02/M06 A3052 RMK AO2 T10221057 =
2018-01-15 18:15 METAR KRMN 152315Z AUTO 00000KT 10SM CLR M03/M06 A3053 RMK AO2 T10281059 =
2018-01-15 17:55 METAR KRMN 152255Z AUTO 00000KT 10SM CLR M02/M06 A3053 RMK AO2 T10201057 =
2018-01-15 17:35 METAR KRMN 152235Z AUTO 06004KT 10SM CLR M02/M06 A3052 RMK AO2 T10161061 =
2018-01-15 17:15 METAR KRMN 152215Z AUTO 05003KT 10SM CLR M01/M06 A3052 RMK AO2 T10101061 =
2018-01-15 16:55 METAR KRMN 152155Z AUTO 07003KT 10SM CLR M01/M06 A3052 RMK AO2 T10061060 =
2018-01-15 16:35 METAR KRMN 152135Z AUTO 09006KT 10SM CLR 00/M06 A3051 RMK AO2 T00001060 =
2018-01-15 16:15 METAR KRMN 152115Z AUTO 08005KT 10SM CLR 01/M06 A3052 RMK AO2 T00051061 =
2018-01-15 16:00 METAR KRMN 152100Z AUTO 10003KT 10SM CLR 01/M06 A3054 RMK AO2 T00061063 =
2018-01-15 15:35 METAR KRMN 152035Z AUTO 06005KT 10SM CLR 01/M06 A3051 RMK AO2 T00071061 =
2018-01-15 15:15 METAR KRMN 152015Z AUTO 08007KT 10SM CLR 01/M06 A3050 RMK AO2 T00101060 =
2018-01-15 14:55 METAR KRMN 151955Z AUTO 06006KT 10SM CLR 02/M06 A3051 RMK AO2 T00151059 =
2018-01-15 14:35 METAR KRMN 151935Z AUTO 04003KT 10SM CLR 01/M07 A3051 RMK AO2 T00141068 =
2018-01-15 14:15 METAR KRMN 151915Z AUTO 01005KT 10SM CLR 01/M07 A3052 RMK AO2 T00131070 =
2018-01-15 13:55 METAR KRMN 151855Z AUTO 03004KT 10SM CLR 01/M07 A3051 RMK AO2 T00131073 =
2018-01-15 13:35 METAR KRMN 151835Z AUTO 36005KT 10SM CLR 01/M08 A3052 RMK AO2 T00071077 =
2018-01-15 13:15 METAR KRMN 151815Z AUTO 02003KT 10SM CLR 00/M08 A3054 RMK AO2 T00011081 =
2018-01-15 12:55 METAR KRMN 151755Z AUTO 00000KT 10SM CLR 00/M09 A3055 RMK AO2 T10051086 11001
                 21117 =
2018-01-15 12:35 METAR KRMN 151735Z AUTO 29005KT 10SM CLR 00/M08 A3058 RMK AO2 T10051084 =

Support USWX by starting your Amazon purchase here.